createdAt,value
2022-12-25T00:03:09.076Z,4.2
2022-12-25T00:08:09.058Z,4.2
2022-12-25T00:13:08.987Z,3.7
2022-12-25T00:23:08.971Z,3
2022-12-25T00:28:09.032Z,3.7
2022-12-25T00:33:08.960Z,3.2
2022-12-25T00:38:09.027Z,3.2
2022-12-25T00:43:08.992Z,4
2022-12-25T00:48:08.960Z,3.8
2022-12-25T00:53:08.971Z,4.1
2022-12-25T00:58:09.035Z,3.3
2022-12-25T01:03:09.045Z,3.3
2022-12-25T01:08:09.030Z,3.3
2022-12-25T01:13:08.985Z,3.3
2022-12-25T01:18:10.691Z,3.3
2022-12-25T01:23:08.969Z,2.8
2022-12-25T01:28:09.074Z,3.2
2022-12-25T01:33:08.993Z,2.7
2022-12-25T01:38:09.069Z,2.7
2022-12-25T01:43:12.635Z,3.3
2022-12-25T01:48:09.043Z,3.4
2022-12-25T01:58:09.073Z,3.4
2022-12-25T02:03:09.034Z,2.5
2022-12-25T02:08:09.072Z,2.5
2022-12-25T02:13:08.957Z,3
2022-12-25T02:18:09.079Z,3
2022-12-25T02:23:08.979Z,2.4
2022-12-25T02:33:08.985Z,2.8
2022-12-25T02:38:09.040Z,2.8
2022-12-25T02:43:08.982Z,2.8
2022-12-25T02:48:09.149Z,2.2
2022-12-25T02:53:08.986Z,2.3
2022-12-25T02:58:09.044Z,2.6
2022-12-25T03:03:09.068Z,2.7
2022-12-25T03:08:09.063Z,2.7
2022-12-25T03:13:08.980Z,2.7
2022-12-25T03:18:09.078Z,2.8
2022-12-25T03:23:08.984Z,2.4
2022-12-25T03:28:09.051Z,2
2022-12-25T03:33:29.557Z,1.8
2022-12-25T03:38:09.062Z,1.8
2022-12-25T03:43:08.984Z,1.7
2022-12-25T03:48:09.115Z,1.9
2022-12-25T03:53:09.019Z,2.4
2022-12-25T03:58:09.070Z,1.5
2022-12-25T04:03:09.020Z,1.9
2022-12-25T04:08:09.075Z,1.9
2022-12-25T04:13:08.959Z,2.1
2022-12-25T04:18:09.072Z,2.3
2022-12-25T04:23:09.017Z,2.1
2022-12-25T04:28:09.090Z,2.7
2022-12-25T04:33:09.017Z,2.4
2022-12-25T04:38:09.074Z,2.4
2022-12-25T04:43:09.010Z,2.5
2022-12-25T04:48:09.080Z,2.5
2022-12-25T04:53:09.015Z,2.7
2022-12-25T04:58:09.109Z,3
2022-12-25T05:03:09.202Z,2.2
2022-12-25T05:08:09.085Z,2.2
2022-12-25T05:13:09.006Z,1.7
2022-12-25T05:18:09.070Z,2.6
2022-12-25T05:23:09.010Z,2.2
2022-12-25T05:28:09.129Z,2.6
2022-12-25T05:33:09.007Z,2.9
2022-12-25T05:38:09.077Z,2.9
2022-12-25T05:43:09.003Z,2
2022-12-25T05:48:09.025Z,2
2022-12-25T05:53:09.110Z,2.4
2022-12-25T05:58:09.082Z,2.3
2022-12-25T06:03:09.178Z,2.3
2022-12-25T06:08:09.075Z,2.3
2022-12-25T06:13:09.009Z,2.2
2022-12-25T06:18:09.076Z,2.6
2022-12-25T06:23:09.084Z,2.9
2022-12-25T06:28:09.077Z,2.3
2022-12-25T06:33:09.006Z,2.2
2022-12-25T06:38:09.070Z,2.2
2022-12-25T06:43:09.008Z,2.4
2022-12-25T06:48:09.106Z,2.9
2022-12-25T06:53:09.025Z,2.3
2022-12-25T06:58:09.073Z,2.1
2022-12-25T07:03:09.065Z,2.4
2022-12-25T07:08:09.073Z,2.4
2022-12-25T07:13:09.018Z,2.2
2022-12-25T07:18:09.071Z,2
2022-12-25T07:23:09.043Z,2.1
2022-12-25T07:28:09.082Z,2.1
2022-12-25T07:33:09.025Z,2.3
2022-12-25T07:38:09.158Z,2.3
2022-12-25T07:43:09.043Z,2.2
2022-12-25T07:48:15.325Z,2.4
2022-12-25T07:53:09.025Z,2
2022-12-25T07:58:09.191Z,3.2
2022-12-25T08:03:09.226Z,2.3
2022-12-25T08:08:09.134Z,2.3
2022-12-25T08:13:13.949Z,3.1
2022-12-25T08:18:09.102Z,2.3
2022-12-25T08:23:09.042Z,2.1
2022-12-25T08:28:09.101Z,2.1
2022-12-25T08:33:09.053Z,2.1
2022-12-25T08:38:09.102Z,2.1
2022-12-25T08:43:09.039Z,2.8
2022-12-25T08:48:09.104Z,2.1
2022-12-25T08:58:09.213Z,2.3
2022-12-25T09:03:09.126Z,3.1
2022-12-25T09:08:09.117Z,3.1
2022-12-25T09:13:09.065Z,2.3
2022-12-25T09:18:09.111Z,3.4
2022-12-25T09:23:13.714Z,2.5
2022-12-25T09:28:09.246Z,2.6
2022-12-25T09:33:09.052Z,2.7
2022-12-25T09:38:09.133Z,2.7
2022-12-25T09:43:09.061Z,2.6
2022-12-25T09:48:09.141Z,3
2022-12-25T09:53:09.060Z,2.6
2022-12-25T09:58:09.141Z,2.6
2022-12-25T10:03:09.291Z,2.6
2022-12-25T10:08:09.144Z,2.6
2022-12-25T10:13:09.063Z,3
2022-12-25T10:18:09.135Z,2.2
2022-12-25T10:23:09.070Z,3.1
2022-12-25T10:28:09.176Z,3.6
2022-12-25T10:33:12.140Z,2.7
2022-12-25T10:38:09.134Z,2.7
2022-12-25T10:43:09.065Z,3.3
2022-12-25T10:48:09.138Z,3.2
2022-12-25T10:53:09.110Z,2.8
2022-12-25T10:58:09.142Z,3.5
2022-12-25T11:03:09.200Z,3.5
2022-12-25T11:08:09.138Z,3.5
2022-12-25T11:13:09.063Z,3
2022-12-25T11:18:09.136Z,2.6
2022-12-25T11:23:09.068Z,4.2
2022-12-25T11:28:09.134Z,2.7
2022-12-25T11:33:09.051Z,3.2
2022-12-25T11:38:09.134Z,3.2
2022-12-25T11:43:09.079Z,4.7
2022-12-25T11:48:09.135Z,3.3
2022-12-25T11:53:09.077Z,3.8
2022-12-25T11:58:09.129Z,4.4
2022-12-25T12:03:09.223Z,3.5
2022-12-25T12:13:09.080Z,3.4
2022-12-25T12:18:09.135Z,3
2022-12-25T12:23:09.082Z,3.4
2022-12-25T12:28:09.137Z,3.7
2022-12-25T12:33:09.076Z,3
2022-12-25T12:38:09.169Z,3
2022-12-25T12:43:09.117Z,3.3
2022-12-25T12:48:09.175Z,2.9
2022-12-25T12:53:09.077Z,2.9
2022-12-25T12:58:09.139Z,3.3
2022-12-25T13:03:09.236Z,3.5
2022-12-25T13:08:09.133Z,3.5
2022-12-25T13:13:09.079Z,3.1
2022-12-25T13:18:09.171Z,3.3
2022-12-25T13:23:09.094Z,3.4
2022-12-25T13:28:09.176Z,3.4
2022-12-25T13:33:09.152Z,2.5
2022-12-25T13:43:09.222Z,3.3
2022-12-25T13:53:09.099Z,3
2022-12-25T13:58:09.185Z,2.6
2022-12-25T14:03:09.167Z,2.6
2022-12-25T14:13:09.141Z,2.6
2022-12-25T14:18:09.136Z,3
2022-12-25T14:28:09.149Z,2.8
2022-12-25T14:33:09.078Z,2.8
2022-12-25T14:38:09.185Z,4
2022-12-25T14:48:09.179Z,2.6
2022-12-25T14:53:09.106Z,3
2022-12-25T15:08:09.250Z,2.7
2022-12-25T15:13:09.088Z,3.5
2022-12-25T15:18:09.190Z,3.6
2022-12-25T15:23:19.811Z,3.1
2022-12-25T15:33:09.109Z,2.5
2022-12-25T15:38:09.164Z,2.5
2022-12-25T15:43:20.873Z,3
2022-12-25T15:48:09.197Z,2.1
2022-12-25T15:53:09.106Z,2.9
2022-12-25T15:58:09.205Z,3.6
2022-12-25T16:03:09.357Z,3.6
2022-12-25T16:13:09.104Z,4
2022-12-25T16:18:09.200Z,2.8
2022-12-25T16:23:09.121Z,3.5
2022-12-25T16:28:09.172Z,3.1
2022-12-25T16:33:09.159Z,3.1
2022-12-25T16:43:09.124Z,2.4
2022-12-25T16:48:09.181Z,2
2022-12-25T16:53:09.121Z,1.7
2022-12-25T16:58:09.167Z,1.8
2022-12-25T17:03:09.203Z,1.8
2022-12-25T17:08:09.167Z,2.5
2022-12-25T17:13:09.126Z,6.6
2022-12-25T17:18:09.270Z,3.4
2022-12-25T17:23:09.124Z,3
2022-12-25T17:28:09.177Z,2.5
2022-12-25T17:38:09.212Z,2.2
2022-12-25T17:43:09.114Z,2.3
2022-12-25T17:48:09.180Z,2.5
2022-12-25T17:53:09.129Z,3.3
2022-12-25T17:58:09.218Z,2.3
2022-12-25T18:03:11.499Z,2.3
2022-12-25T18:08:09.172Z,4.9
2022-12-25T18:13:09.120Z,3.5
2022-12-25T18:18:09.207Z,9.8
2022-12-25T18:23:09.135Z,3.6
2022-12-25T18:28:09.204Z,2.9
2022-12-25T18:38:09.243Z,4.1
2022-12-25T18:43:09.136Z,6.6
2022-12-25T18:48:09.187Z,3.9
2022-12-25T18:53:09.141Z,8.5
2022-12-25T18:58:09.228Z,12.5
2022-12-25T19:08:09.228Z,21.8
2022-12-25T19:13:09.140Z,9.9
2022-12-25T19:18:09.230Z,2.9
2022-12-25T19:23:09.181Z,2.6
2022-12-25T19:28:09.242Z,2.6
2022-12-25T19:33:13.952Z,2.6
2022-12-25T19:38:09.301Z,2.7
2022-12-25T19:43:09.177Z,2.2
2022-12-25T19:48:09.237Z,2.2
2022-12-25T19:53:09.152Z,2.4
2022-12-25T19:58:09.200Z,2
2022-12-25T20:03:09.309Z,2
2022-12-25T20:08:09.244Z,2.5
2022-12-25T20:13:09.158Z,1.7
2022-12-25T20:18:09.215Z,1.7
2022-12-25T20:23:09.172Z,1.8
2022-12-25T20:28:09.257Z,1.9
2022-12-25T20:33:09.175Z,1.9
2022-12-25T20:38:09.248Z,1.2
2022-12-25T20:43:09.166Z,1.7
2022-12-25T20:48:09.259Z,2
2022-12-25T20:53:09.193Z,2.2
2022-12-25T20:58:09.236Z,3.5
2022-12-25T21:03:09.284Z,3.5
2022-12-25T21:08:09.259Z,8.7
2022-12-25T21:13:09.180Z,6.7
2022-12-25T21:18:09.257Z,2.3
2022-12-25T21:28:09.282Z,2.4
2022-12-25T21:33:09.209Z,2.4
2022-12-25T21:38:09.238Z,2.5
2022-12-25T21:43:09.195Z,2.2
2022-12-25T21:48:09.290Z,2.2
2022-12-25T21:53:09.196Z,2.2
2022-12-25T21:58:09.272Z,5.6
2022-12-25T22:03:09.278Z,5.6
2022-12-25T22:08:09.298Z,3.7
2022-12-25T22:13:09.293Z,2.1
2022-12-25T22:18:09.260Z,2.4
2022-12-25T22:23:09.211Z,2.8
2022-12-25T22:28:09.316Z,2.4
2022-12-25T22:33:09.215Z,2.4
2022-12-25T22:38:09.358Z,3
2022-12-25T22:43:09.218Z,2.4
2022-12-25T22:48:09.292Z,2.5
2022-12-25T22:53:09.219Z,2.1
2022-12-25T22:58:09.378Z,2.3
2022-12-25T23:03:09.305Z,2.3
2022-12-25T23:08:09.314Z,2.9
2022-12-25T23:13:09.229Z,2
2022-12-25T23:18:09.283Z,2.2
2022-12-25T23:23:09.232Z,3.2
2022-12-25T23:33:09.235Z,2.4
2022-12-25T23:38:09.326Z,2.3
2022-12-25T23:53:09.231Z,1.9
2022-12-25T23:58:09.300Z,2.5
